Time;durP1;ratioP1;P1;durP2;ratioP2;P2;SDS_P1;SDS_P2;PMS_P1;PMS_P2;Temp;Humidity;BMP_temperature;BMP_pressure;BME280_temperature;BME280_humidity;BME280_pressure;Samples;Min_cycle;Max_cycle;Signal;HPM_P1;HPM_P2
2022/11/07 00:01:48;;;;;;;8.82;4.55;;;10.60;99.90;;;;;;5001406;28;20073;-78
2022/11/07 00:04:14;;;;;;;9.25;4.47;;;11.20;99.90;;;;;;5005167;28;20516;-79
2022/11/07 00:06:40;;;;;;;9.02;4.88;;;11.40;99.90;;;;;;5013778;28;20046;-79
2022/11/07 00:09:05;;;;;;;10.10;5.95;;;11.00;99.90;;;;;;5014817;28;20097;-78
2022/11/07 00:11:31;;;;;;;12.18;5.50;;;10.20;99.90;;;;;;5020626;28;20026;-79
2022/11/07 00:13:57;;;;;;;14.90;5.57;;;10.20;99.90;;;;;;5020883;28;20061;-79
2022/11/07 00:16:22;;;;;;;9.73;5.35;;;11.20;99.90;;;;;;5020943;28;20117;-79
2022/11/07 00:18:48;;;;;;;13.23;5.47;;;11.10;99.90;;;;;;5020753;28;20030;-79
2022/11/07 00:21:13;;;;;;;12.43;5.70;;;10.40;99.90;;;;;;5020855;28;20022;-79
2022/11/07 00:23:40;;;;;;;10.80;5.95;;;11.40;99.90;;;;;;5020688;28;20026;-79
2022/11/07 00:26:08;;;;;;;8.60;5.80;;;10.40;99.90;;;;;;5020352;28;20032;-79
2022/11/07 00:28:35;;;;;;;9.60;5.28;;;10.50;99.90;;;;;;5020517;28;20104;-79
2022/11/07 00:31:01;;;;;;;8.80;4.82;;;10.60;99.90;;;;;;5020934;28;20384;-79
2022/11/07 00:33:27;;;;;;;7.28;4.28;;;10.60;99.90;;;;;;5020724;28;20040;-79
2022/11/07 00:35:53;;;;;;;7.90;3.80;;;10.40;99.90;;;;;;5020357;28;20018;-79
2022/11/07 00:38:18;;;;;;;7.80;4.45;;;11.20;99.90;;;;;;5018518;28;20018;-79
2022/11/07 00:40:54;;;;;;;8.23;3.90;;;10.30;99.90;;;;;;5020600;28;20022;-79
2022/11/07 00:43:19;;;;;;;11.48;4.25;;;10.00;99.90;;;;;;5020471;28;20030;-79
2022/11/07 00:45:45;;;;;;;12.93;4.45;;;11.00;99.90;;;;;;5020309;28;20025;-79
2022/11/07 00:48:10;;;;;;;7.03;4.38;;;10.70;99.90;;;;;;5020391;28;20376;-79
2022/11/07 00:50:36;;;;;;;8.32;4.22;;;11.10;99.90;;;;;;5020587;28;20025;-78
2022/11/07 00:53:01;;;;;;;12.75;4.20;;;10.90;99.90;;;;;;5020420;28;20468;-79
2022/11/07 00:55:27;;;;;;;13.52;4.28;;;10.10;99.90;;;;;;5020208;28;20018;-79
2022/11/07 00:57:52;;;;;;;11.85;4.25;;;11.00;99.90;;;;;;5019598;28;20026;-79
2022/11/07 01:00:18;;;;;;;14.50;4.40;;;10.70;99.90;;;;;;5016612;28;20488;-79
2022/11/07 01:05:08;;;;;;;13.57;5.03;;;11.40;99.90;;;;;;5017568;28;20030;-79
2022/11/07 01:05:29;;;;;;;16.85;4.70;;;10.70;99.90;;;;;;5017166;28;20491;-79
2022/11/07 01:07:55;;;;;;;13.05;4.78;;;10.30;99.90;;;;;;5017280;28;20018;-79
2022/11/07 01:10:20;;;;;;;12.18;4.70;;;10.80;99.90;;;;;;5016858;28;20026;-79
2022/11/07 01:12:46;;;;;;;17.50;5.10;;;10.30;99.90;;;;;;5016324;28;20060;-79
2022/11/07 01:15:13;;;;;;;7.60;4.57;;;11.30;99.90;;;;;;5017396;28;20045;-79
2022/11/07 01:17:38;;;;;;;14.35;5.75;;;10.40;99.90;;;;;;5016912;28;20551;-79
2022/11/07 01:20:17;;;;;;;8.52;4.68;;;11.40;99.90;;;;;;5016712;28;20024;-78
2022/11/07 01:22:42;;;;;;;7.63;4.18;;;10.90;99.90;;;;;;5016853;28;20022;-79
2022/11/07 01:25:08;;;;;;;13.18;4.20;;;11.10;99.90;;;;;;5016877;28;20056;-79
2022/11/07 01:27:34;;;;;;;18.38;4.65;;;10.30;99.90;;;;;;5010456;28;20451;-78
2022/11/07 01:29:59;;;;;;;15.05;4.35;;;10.20;99.90;;;;;;4997104;28;20069;-79
2022/11/07 01:32:25;;;;;;;10.25;4.53;;;10.50;99.90;;;;;;4997129;28;20102;-79
2022/11/07 01:34:50;;;;;;;17.92;4.57;;;10.20;99.90;;;;;;4996597;28;20033;-79
2022/11/07 01:37:16;;;;;;;10.20;4.00;;;10.40;99.90;;;;;;4996795;28;20025;-78
2022/11/07 01:39:42;;;;;;;7.15;3.72;;;11.30;99.90;;;;;;4998293;28;20023;-79
2022/11/07 01:42:10;;;;;;;10.95;3.90;;;11.00;99.90;;;;;;5016652;28;20029;-78
2022/11/07 01:44:39;;;;;;;8.40;3.70;;;10.10;99.90;;;;;;5016879;28;20060;-78
2022/11/07 01:47:05;;;;;;;9.07;3.47;;;11.10;99.90;;;;;;5016645;28;20026;-78
2022/11/07 01:49:39;;;;;;;12.98;3.75;;;10.20;99.90;;;;;;5016592;28;20153;-78
2022/11/07 01:52:10;;;;;;;8.20;3.50;;;10.80;99.90;;;;;;4997200;28;20045;-78
2022/11/07 01:54:37;;;;;;;11.27;3.80;;;10.40;99.90;;;;;;4997252;28;20023;-79
2022/11/07 01:57:07;;;;;;;11.40;3.53;;;10.70;99.90;;;;;;4996727;28;20030;-78
2022/11/07 01:59:35;;;;;;;10.25;3.20;;;11.60;99.90;;;;;;4996802;28;20080;-79
2022/11/07 02:02:02;;;;;;;11.68;3.35;;;11.20;99.90;;;;;;4997079;28;20117;-79
2022/11/07 02:04:29;;;;;;;8.30;2.92;;;11.60;99.90;;;;;;4996840;28;20030;-78
2022/11/07 02:07:25;;;;;;;8.93;3.72;;;11.00;99.90;;;;;;4996419;28;20018;-78
2022/11/07 02:09:52;;;;;;;8.52;3.80;;;10.50;99.90;;;;;;5012327;28;20510;-78
2022/11/07 02:12:19;;;;;;;11.27;3.72;;;11.30;99.90;;;;;;4995964;28;20042;-79
2022/11/07 02:14:45;;;;;;;11.75;3.55;;;10.40;99.90;;;;;;4996190;28;20034;-79
2022/11/07 02:17:12;;;;;;;14.02;3.90;;;11.50;99.90;;;;;;5007261;28;20025;-79
2022/11/07 02:19:47;;;;;;;16.55;4.30;;;10.10;99.90;;;;;;5016057;28;20096;-78
2022/11/07 02:22:24;;;;;;;11.43;3.60;;;10.60;99.90;;;;;;5016289;28;20032;-78
2022/11/07 02:24:57;;;;;;;12.40;4.07;;;11.40;99.90;;;;;;5015907;28;20026;-79
2022/11/07 02:27:25;;;;;;;11.60;3.88;;;10.60;99.90;;;;;;5002079;28;20042;-78
2022/11/07 02:30:00;;;;;;;17.80;3.95;;;11.30;99.90;;;;;;5004116;28;20026;-79
2022/11/07 02:32:26;;;;;;;20.88;4.15;;;11.80;99.90;;;;;;4996184;28;20480;-79
2022/11/07 02:35:00;;;;;;;18.42;3.97;;;11.40;99.90;;;;;;4996272;28;20027;-79
2022/11/07 02:37:32;;;;;;;15.98;2.90;;;10.80;99.90;;;;;;4996189;28;20636;-79
2022/11/07 02:39:59;;;;;;;11.35;3.78;;;11.60;99.90;;;;;;4996376;28;20030;-79
2022/11/07 02:42:42;;;;;;;16.38;3.25;;;10.70;99.90;;;;;;4996054;28;20022;-78
2022/11/07 02:45:16;;;;;;;16.00;3.83;;;11.60;99.90;;;;;;4999721;28;20468;-79
2022/11/07 02:47:41;;;;;;;11.32;2.75;;;10.90;99.90;;;;;;5003807;28;20818;-78
2022/11/07 02:50:13;;;;;;;14.70;3.17;;;10.80;99.90;;;;;;4996182;28;20101;-79
2022/11/07 02:52:38;;;;;;;12.77;3.50;;;10.90;99.90;;;;;;4995798;28;20089;-79
2022/11/07 02:55:05;;;;;;;10.27;2.78;;;11.00;99.90;;;;;;5004224;28;20104;-78
2022/11/07 02:57:31;;;;;;;11.55;3.00;;;11.60;99.90;;;;;;5014096;28;20034;-79
2022/11/07 02:59:57;;;;;;;11.15;2.60;;;11.00;99.90;;;;;;5014852;28;20480;-79
2022/11/07 03:02:23;;;;;;;13.88;2.85;;;10.70;99.90;;;;;;5015142;28;20068;-79
2022/11/07 03:04:49;;;;;;;8.80;2.50;;;11.00;99.90;;;;;;5015172;28;20184;-79
2022/11/07 03:07:15;;;;;;;10.32;2.72;;;11.60;99.90;;;;;;5015020;28;20026;-79
2022/11/07 03:09:41;;;;;;;6.80;2.70;;;10.60;99.90;;;;;;5014630;28;20049;-79
2022/11/07 03:12:08;;;;;;;8.45;2.63;;;11.20;99.90;;;;;;5012382;28;20112;-79
2022/11/07 03:14:33;;;;;;;13.40;2.97;;;10.70;99.90;;;;;;4992388;28;20038;-79
2022/11/07 03:16:59;;;;;;;12.43;3.30;;;10.90;99.90;;;;;;4976664;28;20037;-79
2022/11/07 03:19:44;;;;;;;13.60;2.55;;;11.30;99.90;;;;;;4976901;28;20015;-79
2022/11/07 03:22:10;;;;;;;11.57;3.05;;;10.40;99.90;;;;;;4980812;28;20030;-79
2022/11/07 03:24:35;;;;;;;13.25;2.90;;;11.20;99.90;;;;;;4996153;28;20026;-79
2022/11/07 03:27:01;;;;;;;10.18;3.03;;;10.50;99.90;;;;;;4996028;28;20026;-79
2022/11/07 03:29:26;;;;;;;8.50;2.45;;;10.40;99.90;;;;;;4985343;28;20023;-79
2022/11/07 03:31:52;;;;;;;10.23;2.60;;;11.20;99.90;;;;;;4976413;28;20100;-79
2022/11/07 03:34:17;;;;;;;8.05;1.98;;;11.20;99.90;;;;;;4976782;28;20034;-79
2022/11/07 03:36:43;;;;;;;11.02;2.35;;;10.80;99.90;;;;;;4975312;28;20038;-79
2022/11/07 03:39:08;;;;;;;14.57;2.20;;;11.00;99.90;;;;;;4976812;28;20642;-79
2022/11/07 03:41:34;;;;;;;12.43;2.30;;;11.20;99.90;;;;;;4976209;28;20073;-79
2022/11/07 03:44:00;;;;;;;9.15;2.00;;;10.20;99.90;;;;;;4976263;28;20035;-78
2022/11/07 03:46:25;;;;;;;7.82;2.15;;;10.40;99.90;;;;;;4976288;28;20029;-79
2022/11/07 03:48:51;;;;;;;14.38;2.30;;;11.00;99.90;;;;;;4976608;28;20057;-79
2022/11/07 03:51:16;;;;;;;10.05;2.30;;;11.20;99.90;;;;;;4976279;28;20023;-79
2022/11/07 03:53:42;;;;;;;7.72;2.40;;;11.00;99.90;;;;;;4976632;28;20038;-79
2022/11/07 03:56:09;;;;;;;7.47;2.22;;;11.10;99.90;;;;;;4991305;28;20568;-79
2022/11/07 03:58:36;;;;;;;17.63;3.08;;;11.00;99.90;;;;;;4995643;28;20385;-79
2022/11/07 04:01:02;;;;;;;10.25;2.80;;;11.30;99.90;;;;;;4996184;28;20026;-79
2022/11/07 04:03:28;;;;;;;13.05;3.45;;;10.30;99.90;;;;;;4995899;28;20392;-79
2022/11/07 04:05:53;;;;;;;12.85;3.42;;;10.20;99.90;;;;;;4996074;28;20517;-79
2022/11/07 04:08:19;;;;;;;17.13;3.75;;;11.70;99.90;;;;;;4995907;28;20401;-79
2022/11/07 04:10:45;;;;;;;11.35;3.30;;;11.50;99.90;;;;;;4976527;28;20065;-79
2022/11/07 04:18:39;;;;;;;13.88;3.40;;;11.50;99.90;;;;;;5015442;28;20076;-78
2022/11/07 04:21:04;;;;;;;12.45;3.42;;;10.30;99.90;;;;;;5015280;28;20030;-78
2022/11/07 04:23:30;;;;;;;11.70;3.22;;;10.70;99.90;;;;;;5015252;28;20029;-79
2022/11/07 04:28:40;;;;;;;13.40;3.38;;;10.40;99.90;;;;;;4996044;28;20029;-79
2022/11/07 04:31:05;;;;;;;8.43;3.03;;;11.50;99.90;;;;;;5008968;28;20022;-79
2022/11/07 04:33:31;;;;;;;24.23;4.25;;;11.10;99.90;;;;;;5012291;28;20087;-79
2022/11/07 04:35:56;;;;;;;12.23;3.65;;;10.60;99.90;;;;;;5018790;28;20026;-79
2022/11/07 04:38:22;;;;;;;10.88;3.28;;;10.40;99.90;;;;;;5019098;28;20096;-80
2022/11/07 04:41:22;;;;;;;15.75;3.05;;;10.30;99.90;;;;;;5019004;28;20053;-79
2022/11/07 04:43:47;;;;;;;10.07;2.73;;;10.80;99.90;;;;;;5007715;28;20014;-79
2022/11/07 04:46:14;;;;;;;12.57;3.20;;;10.50;99.90;;;;;;5002719;28;20387;-79
2022/11/07 04:48:39;;;;;;;9.50;3.03;;;10.90;99.90;;;;;;5017216;28;20141;-79
2022/11/07 04:51:05;;;;;;;12.85;2.75;;;10.90;99.90;;;;;;4999104;28;20046;-79
2022/11/07 04:53:30;;;;;;;14.32;2.97;;;10.70;99.90;;;;;;4999042;28;20038;-79
2022/11/07 04:55:56;;;;;;;10.93;2.58;;;10.20;99.90;;;;;;4998809;28;20054;-79
2022/11/07 04:58:22;;;;;;;9.10;2.80;;;10.10;99.90;;;;;;4998734;28;20102;-78
2022/11/07 05:00:47;;;;;;;10.65;2.50;;;10.10;99.90;;;;;;4998383;28;20061;-79
2022/11/07 05:03:13;;;;;;;12.77;2.80;;;10.30;99.90;;;;;;5003486;28;20026;-79
2022/11/07 05:05:38;;;;;;;12.07;2.45;;;10.10;99.90;;;;;;5018474;28;20029;-79
2022/11/07 05:08:04;;;;;;;13.70;2.50;;;10.50;99.90;;;;;;5018324;28;20076;-79
2022/11/07 05:10:30;;;;;;;15.18;2.63;;;10.30;99.90;;;;;;5017973;28;20071;-79
2022/11/07 05:12:56;;;;;;;13.05;2.60;;;10.70;99.90;;;;;;5017765;28;20062;-78
2022/11/07 05:15:21;;;;;;;8.40;2.33;;;10.60;99.90;;;;;;5014188;28;20085;-79
2022/11/07 05:17:47;;;;;;;7.53;2.55;;;11.50;99.90;;;;;;5000255;28;20520;-79
2022/11/07 05:20:30;;;;;;;8.70;2.40;;;10.40;99.90;;;;;;5011442;28;20069;-79
2022/11/07 05:23:11;;;;;;;6.85;2.47;;;10.60;99.90;;;;;;4998391;28;20030;-80
2022/11/07 05:25:38;;;;;;;8.60;2.20;;;11.10;99.90;;;;;;5004383;28;20026;-80
2022/11/07 05:28:05;;;;;;;7.28;1.58;;;9.90;99.90;;;;;;4996943;28;20053;-80
2022/11/07 05:30:30;;;;;;;7.63;1.60;;;10.30;99.90;;;;;;4996607;28;20019;-80
2022/11/07 05:32:56;;;;;;;5.85;1.42;;;10.20;99.90;;;;;;4994635;28;20558;-80
2022/11/07 05:35:22;;;;;;;9.68;1.48;;;11.10;99.90;;;;;;5002669;28;20400;-80
2022/11/07 05:37:48;;;;;;;9.15;1.58;;;11.10;99.90;;;;;;4999776;28;20023;-80
2022/11/07 05:40:13;;;;;;;9.55;1.23;;;9.90;99.90;;;;;;5000390;28;20026;-80
2022/11/07 05:42:39;;;;;;;7.50;1.75;;;11.20;99.90;;;;;;4992445;28;20065;-80
2022/11/07 05:45:05;;;;;;;4.40;1.35;;;11.10;99.90;;;;;;4997454;28;20345;-80
2022/11/07 05:47:31;;;;;;;7.72;1.70;;;9.90;99.90;;;;;;4997571;28;20057;-79
2022/11/07 05:49:56;;;;;;;8.35;1.83;;;9.80;99.90;;;;;;5001130;28;20049;-79
2022/11/07 05:52:22;;;;;;;8.82;1.95;;;10.10;99.90;;;;;;5001679;28;20025;-79
2022/11/07 05:54:48;;;;;;;5.10;2.28;;;10.70;99.90;;;;;;5005113;28;20034;-79
2022/11/07 05:57:13;;;;;;;10.15;3.13;;;10.20;99.90;;;;;;5004319;28;20018;-79
2022/11/07 05:59:39;;;;;;;8.80;3.20;;;10.70;99.90;;;;;;5004157;28;20535;-80
2022/11/07 06:02:08;;;;;;;7.72;2.90;;;11.10;99.90;;;;;;4996723;28;20029;-79
2022/11/07 06:04:33;;;;;;;8.50;2.83;;;11.20;99.90;;;;;;4996580;28;20062;-79
2022/11/07 06:06:59;;;;;;;8.93;3.15;;;11.00;99.90;;;;;;4996471;28;20065;-79
2022/11/07 06:09:25;;;;;;;8.57;3.10;;;11.00;99.90;;;;;;5000586;28;20022;-79
2022/11/07 06:11:51;;;;;;;4.53;2.00;;;11.70;99.90;;;;;;5012087;28;20029;-79
2022/11/07 06:14:16;;;;;;;6.50;2.47;;;10.30;99.90;;;;;;5008886;28;20057;-80
2022/11/07 06:16:42;;;;;;;10.77;2.80;;;10.40;99.90;;;;;;5001593;28;20077;-80
2022/11/07 06:19:07;;;;;;;11.23;3.10;;;11.60;99.90;;;;;;5004144;28;20066;-80
2022/11/07 06:21:34;;;;;;;9.10;2.78;;;11.60;99.90;;;;;;5010746;28;20106;-79
2022/11/07 06:23:59;;;;;;;10.57;3.10;;;10.60;99.90;;;;;;5004708;28;20052;-80
2022/11/07 06:26:25;;;;;;;13.80;4.78;;;10.60;99.90;;;;;;5011101;28;20018;-80
2022/11/07 06:28:51;;;;;;;11.35;3.58;;;11.40;99.90;;;;;;4999017;28;20022;-80
2022/11/07 06:31:17;;;;;;;11.35;3.90;;;10.50;99.90;;;;;;4999991;28;20053;-80
2022/11/07 06:33:42;;;;;;;10.05;3.63;;;11.80;99.90;;;;;;4998805;28;20571;-80
2022/11/07 06:36:11;;;;;;;10.85;3.83;;;10.60;99.90;;;;;;5001072;28;20034;-80
2022/11/07 06:38:37;;;;;;;13.45;4.03;;;11.00;99.90;;;;;;5004365;28;20428;-80
2022/11/07 06:41:12;;;;;;;9.73;3.70;;;11.60;99.90;;;;;;5008882;28;20034;-80
2022/11/07 06:43:37;;;;;;;10.35;3.60;;;11.70;99.90;;;;;;4992917;28;20054;-79
2022/11/07 06:46:06;;;;;;;14.15;3.50;;;11.90;99.90;;;;;;4996014;28;20084;-80
2022/11/07 06:48:32;;;;;;;7.65;2.97;;;10.70;99.90;;;;;;5003163;28;20535;-79
2022/11/07 06:51:03;;;;;;;6.05;2.78;;;10.50;99.90;;;;;;5009297;28;20033;-79
2022/11/07 06:53:29;;;;;;;8.77;2.92;;;11.60;99.90;;;;;;5010280;28;20037;-80
2022/11/07 06:55:58;;;;;;;8.38;3.30;;;11.40;99.90;;;;;;5007203;28;20030;-79
2022/11/07 06:58:24;;;;;;;10.75;3.60;;;10.30;99.90;;;;;;5010599;28;20281;-79
2022/11/07 07:00:49;;;;;;;9.82;3.72;;;11.60;99.90;;;;;;4998843;28;20037;-79
2022/11/07 07:03:15;;;;;;;8.95;3.72;;;11.10;99.90;;;;;;5010845;28;20029;-80
2022/11/07 07:05:40;;;;;;;13.63;4.03;;;11.60;99.90;;;;;;5005094;28;20029;-80
2022/11/07 07:08:06;;;;;;;12.45;3.53;;;11.30;99.90;;;;;;4997680;28;20022;-79
2022/11/07 07:10:39;;;;;;;11.23;3.20;;;11.50;99.90;;;;;;5010949;28;20026;-80
2022/11/07 07:13:04;;;;;;;14.15;3.15;;;10.50;99.90;;;;;;5003824;28;20052;-79
2022/11/07 07:15:31;;;;;;;13.73;2.83;;;11.20;99.90;;;;;;5005143;28;20056;-79
2022/11/07 07:18:01;;;;;;;8.48;2.55;;;12.10;99.90;;;;;;5007364;28;20021;-79
2022/11/07 07:20:28;;;;;;;12.10;3.30;;;11.10;99.90;;;;;;5004837;28;20104;-79
2022/11/07 07:22:54;;;;;;;12.45;2.90;;;11.20;99.90;;;;;;5006671;28;20223;-79
2022/11/07 07:25:20;;;;;;;7.93;2.47;;;10.50;99.90;;;;;;4999903;28;20029;-79
2022/11/07 07:27:45;;;;;;;8.15;2.40;;;10.80;99.90;;;;;;5008576;28;20022;-79
2022/11/07 07:30:12;;;;;;;10.95;2.00;;;12.10;99.90;;;;;;5009141;28;20108;-79
2022/11/07 07:32:37;;;;;;;4.50;2.08;;;10.90;99.90;;;;;;5006029;28;20021;-79
2022/11/07 07:35:04;;;;;;;5.60;2.20;;;11.20;99.90;;;;;;5005165;28;20022;-79
2022/11/07 07:37:29;;;;;;;7.45;2.70;;;10.60;99.90;;;;;;5008891;28;20029;-81
2022/11/07 07:39:55;;;;;;;10.13;3.05;;;11.80;99.90;;;;;;5009877;28;20022;-79
2022/11/07 07:42:21;;;;;;;17.50;3.58;;;11.30;99.90;;;;;;5004641;28;20049;-79
2022/11/07 07:44:46;;;;;;;11.23;3.25;;;10.70;99.90;;;;;;5007594;28;20481;-79
2022/11/07 07:47:12;;;;;;;15.50;3.70;;;11.90;99.90;;;;;;5007243;28;20022;-79
2022/11/07 07:49:37;;;;;;;5.65;2.90;;;11.60;99.90;;;;;;5006595;28;20026;-79
2022/11/07 07:52:03;;;;;;;6.32;2.50;;;12.00;99.90;;;;;;4999546;28;20582;-79
2022/11/07 07:54:29;;;;;;;7.97;2.60;;;11.20;99.90;;;;;;5014468;28;20507;-79
2022/11/07 07:56:55;;;;;;;5.93;2.85;;;11.20;99.90;;;;;;5006006;28;20065;-79
2022/11/07 07:59:20;;;;;;;6.82;2.58;;;12.60;99.90;;;;;;5020693;28;20025;-79
2022/11/07 08:01:46;;;;;;;13.00;3.28;;;11.60;99.90;;;;;;5006902;28;20030;-79
2022/11/07 08:04:11;;;;;;;10.10;3.45;;;11.60;99.90;;;;;;5012724;28;20025;-79
2022/11/07 08:06:37;;;;;;;14.35;3.72;;;12.40;99.90;;;;;;5008517;28;20030;-80
2022/11/07 08:09:03;;;;;;;12.48;3.65;;;12.70;99.90;;;;;;5008251;28;20022;-79
2022/11/07 08:11:29;;;;;;;12.27;3.30;;;11.50;99.90;;;;;;4995964;28;20030;-78
2022/11/07 08:13:55;;;;;;;15.95;4.25;;;11.50;99.90;;;;;;5003628;28;20035;-79
2022/11/07 08:16:21;;;;;;;13.43;3.88;;;11.00;99.90;;;;;;5007385;28;20025;-79
2022/11/07 08:18:46;;;;;;;10.52;3.45;;;11.00;99.90;;;;;;5001595;28;20030;-79
2022/11/07 08:21:12;;;;;;;13.60;3.47;;;11.10;99.90;;;;;;5006549;28;20026;-79
2022/11/07 08:23:37;;;;;;;16.33;3.50;;;11.20;99.90;;;;;;5007178;28;20064;-79
2022/11/07 08:26:04;;;;;;;13.23;3.25;;;12.30;99.90;;;;;;5013125;28;20018;-79
2022/11/07 08:28:32;;;;;;;12.57;4.90;;;12.40;99.90;;;;;;5004726;28;20051;-79
2022/11/07 08:31:06;;;;;;;15.55;3.90;;;11.60;99.90;;;;;;5014739;28;20030;-79
2022/11/07 08:33:32;;;;;;;16.15;4.50;;;12.70;99.90;;;;;;5008330;28;20026;-79
2022/11/07 08:35:59;;;;;;;16.92;4.15;;;12.70;99.90;;;;;;5010090;28;20374;-79
2022/11/07 08:38:25;;;;;;;16.17;3.95;;;11.60;99.90;;;;;;5014166;28;20050;-80
2022/11/07 08:40:51;;;;;;;12.63;4.00;;;13.00;99.90;;;;;;5004380;28;20034;-79
2022/11/07 08:43:17;;;;;;;15.70;3.97;;;12.50;99.90;;;;;;5011869;28;20022;-79
2022/11/07 08:45:44;;;;;;;17.63;4.47;;;11.10;99.90;;;;;;5020834;28;20034;-79
2022/11/07 08:48:09;;;;;;;18.92;5.35;;;12.40;99.90;;;;;;5007006;28;20023;-79
2022/11/07 08:50:35;;;;;;;11.65;4.30;;;11.40;99.90;;;;;;4999177;28;20025;-79
2022/11/07 08:53:01;;;;;;;15.90;5.00;;;12.90;99.90;;;;;;5006589;28;20037;-79
2022/11/07 08:55:26;;;;;;;16.38;4.35;;;12.70;99.90;;;;;;5014073;28;20034;-79
2022/11/07 08:58:00;;;;;;;14.88;3.90;;;12.20;99.90;;;;;;5002981;28;20042;-79
2022/11/07 09:00:26;;;;;;;14.18;4.55;;;11.60;99.90;;;;;;5008542;28;20068;-79
2022/11/07 09:02:51;;;;;;;15.05;4.68;;;12.00;99.90;;;;;;5013319;28;20029;-79
2022/11/07 09:05:17;;;;;;;18.65;4.45;;;12.80;99.90;;;;;;5010897;28;20033;-79
2022/11/07 09:07:42;;;;;;;13.93;5.00;;;12.90;99.90;;;;;;5009848;28;20026;-79
2022/11/07 09:10:08;;;;;;;14.05;4.50;;;12.90;99.90;;;;;;5013939;28;20436;-79
2022/11/07 09:12:34;;;;;;;17.48;4.20;;;12.20;99.90;;;;;;5007507;28;20073;-79
2022/11/07 09:14:59;;;;;;;14.57;4.80;;;13.10;99.90;;;;;;5005261;28;20447;-79
2022/11/07 09:17:26;;;;;;;12.82;4.63;;;12.10;99.90;;;;;;5012901;28;20038;-79
2022/11/07 09:19:51;;;;;;;18.15;4.60;;;12.70;99.90;;;;;;5010017;28;20497;-80
2022/11/07 09:22:17;;;;;;;13.10;4.65;;;12.90;99.90;;;;;;5014277;28;20349;-80
2022/11/07 09:24:43;;;;;;;18.67;4.97;;;12.60;99.90;;;;;;5006518;28;20070;-79
2022/11/07 09:27:08;;;;;;;12.65;4.03;;;12.40;99.90;;;;;;5006842;28;20030;-80
2022/11/07 09:29:35;;;;;;;11.43;3.65;;;12.40;99.90;;;;;;5017950;28;20129;-80
2022/11/07 09:32:00;;;;;;;9.75;4.18;;;12.70;99.90;;;;;;5017466;28;20362;-79
2022/11/07 09:34:26;;;;;;;19.17;4.30;;;12.60;99.90;;;;;;5015511;28;20042;-80
2022/11/07 09:36:51;;;;;;;14.82;4.10;;;12.70;99.90;;;;;;5001406;28;20022;-80
2022/11/07 09:39:17;;;;;;;11.68;4.00;;;12.70;99.90;;;;;;5013689;28;20018;-80
2022/11/07 09:41:57;;;;;;;11.90;4.20;;;13.10;99.90;;;;;;5018357;28;20096;-79
2022/11/07 09:44:28;;;;;;;11.25;3.47;;;12.90;99.90;;;;;;5008562;28;20025;-79
2022/11/07 09:47:04;;;;;;;8.75;3.05;;;12.80;99.90;;;;;;5015846;28;20028;-79
2022/11/07 09:49:44;;;;;;;15.00;3.42;;;13.30;99.90;;;;;;5005468;28;20377;-79
2022/11/07 09:52:53;;;;;;;11.13;3.10;;;13.30;99.90;;;;;;5014737;28;20571;-79
2022/11/07 09:55:27;;;;;;;12.25;3.30;;;13.40;99.90;;;;;;4972959;28;20035;-79
2022/11/07 09:57:59;;;;;;;15.85;3.90;;;13.20;99.90;;;;;;4974743;28;20584;-79
2022/11/07 10:00:28;;;;;;;9.82;3.22;;;13.30;99.90;;;;;;4998737;28;20041;-79
2022/11/07 10:02:55;;;;;;;14.50;4.07;;;13.30;99.90;;;;;;5017282;28;20480;-79
2022/11/07 10:05:47;;;;;;;10.70;3.35;;;13.60;99.90;;;;;;5011012;28;20026;-79
2022/11/07 10:08:20;;;;;;;12.15;3.35;;;13.90;99.90;;;;;;5007283;28;20052;-79
2022/11/07 10:11:08;;;;;;;13.55;3.15;;;13.40;99.90;;;;;;5012096;28;20030;-79
2022/11/07 10:13:51;;;;;;;8.05;2.70;;;13.60;99.90;;;;;;5010389;28;20065;-79
2022/11/07 10:16:26;;;;;;;7.53;2.90;;;13.70;99.90;;;;;;5014386;28;20077;-79
2022/11/07 10:19:30;;;;;;;10.63;3.00;;;13.40;99.90;;;;;;5011748;28;20570;-79
2022/11/07 10:22:22;;;;;;;8.18;2.90;;;13.70;99.90;;;;;;5024266;28;20026;-79
2022/11/07 10:25:22;;;;;;;7.57;2.65;;;13.80;99.90;;;;;;5016799;28;20054;-79
2022/11/07 10:28:14;;;;;;;11.25;3.47;;;13.60;99.90;;;;;;5008539;28;20045;-79
2022/11/07 10:30:43;;;;;;;13.52;3.05;;;14.00;99.90;;;;;;5007985;28;20034;-80
2022/11/07 10:33:41;;;;;;;13.95;2.88;;;13.90;99.90;;;;;;5005021;28;20500;-80
2022/11/07 10:36:27;;;;;;;11.75;3.42;;;13.80;99.90;;;;;;5004873;28;20358;-80
2022/11/07 10:38:53;;;;;;;10.43;2.75;;;13.60;99.90;;;;;;5013240;28;20023;-80
2022/11/07 10:41:19;;;;;;;12.00;2.70;;;13.70;99.90;;;;;;5011123;28;20092;-79
2022/11/07 10:43:48;;;;;;;10.55;2.42;;;13.90;99.90;;;;;;4997891;28;20031;-79
2022/11/07 10:46:26;;;;;;;9.52;2.67;;;14.30;99.90;;;;;;5013636;28;20014;-79
2022/11/07 10:48:57;;;;;;;13.07;3.47;;;14.10;99.90;;;;;;5011994;28;20064;-79
2022/11/07 10:51:41;;;;;;;7.32;2.50;;;14.50;99.90;;;;;;5010001;28;20392;-79
2022/11/07 10:54:18;;;;;;;8.40;2.72;;;14.40;99.90;;;;;;5006262;28;20385;-79
2022/11/07 10:56:47;;;;;;;10.40;3.15;;;14.20;99.90;;;;;;5023787;28;20061;-79
2022/11/07 10:59:20;;;;;;;14.55;2.85;;;14.20;99.90;;;;;;5024730;28;20017;-79
2022/11/07 11:01:54;;;;;;;10.43;2.67;;;14.00;99.90;;;;;;5014436;28;20034;-79
2022/11/07 11:04:22;;;;;;;10.27;3.70;;;14.20;99.90;;;;;;5021206;28;20037;-80
2022/11/07 11:07:09;;;;;;;9.27;3.05;;;14.00;99.90;;;;;;5023915;28;20018;-80
2022/11/07 11:09:35;;;;;;;9.57;2.97;;;13.90;99.90;;;;;;5017895;28;20033;-80
2022/11/07 11:12:09;;;;;;;8.40;3.17;;;13.90;99.90;;;;;;5007637;28;20038;-79
2022/11/07 11:14:34;;;;;;;14.15;3.47;;;13.90;99.90;;;;;;5016153;28;20057;-80
2022/11/07 11:17:00;;;;;;;12.60;3.55;;;13.80;99.90;;;;;;5011603;28;20026;-79
2022/11/07 11:19:32;;;;;;;13.20;3.50;;;14.00;99.90;;;;;;5007698;28;20053;-79
2022/11/07 11:21:59;;;;;;;11.15;3.13;;;14.00;99.90;;;;;;5010532;28;20037;-79
2022/11/07 11:24:36;;;;;;;14.75;3.95;;;14.20;99.90;;;;;;5009727;28;20034;-80
2022/11/07 11:27:23;;;;;;;15.20;3.63;;;14.50;99.90;;;;;;5001884;28;20476;-80
2022/11/07 11:30:05;;;;;;;9.68;3.25;;;14.20;99.90;;;;;;5015773;28;20026;-80
2022/11/07 11:32:40;;;;;;;7.93;3.28;;;14.60;99.90;;;;;;5007182;28;20034;-80
2022/11/07 11:35:30;;;;;;;10.70;3.03;;;14.50;99.90;;;;;;5001688;28;20439;-80
2022/11/07 11:38:03;;;;;;;14.45;3.60;;;15.00;99.90;;;;;;5001047;28;20037;-80
2022/11/07 11:40:36;;;;;;;10.93;4.00;;;15.10;99.90;;;;;;4996578;28;20496;-80
2022/11/07 11:43:21;;;;;;;10.10;3.95;;;15.40;99.90;;;;;;5003856;28;20056;-79
2022/11/07 11:46:01;;;;;;;9.85;3.45;;;15.00;99.90;;;;;;5002515;28;20042;-80
2022/11/07 11:48:31;;;;;;;;;;;14.90;99.90;;;;;;5003181;28;20018;-80
2022/11/07 11:51:21;;;;;;;8.60;3.47;;;15.30;99.90;;;;;;5010572;28;19913;-79
2022/11/07 11:53:46;;;;;;;8.25;2.83;;;15.10;99.90;;;;;;5008392;28;20477;-79
2022/11/07 11:56:38;;;;;;;8.85;3.13;;;14.90;99.90;;;;;;4997509;28;20033;-80
2022/11/07 11:59:19;;;;;;;8.60;3.10;;;15.00;99.90;;;;;;4998827;28;20022;-80
2022/11/07 12:02:10;;;;;;;11.13;2.63;;;15.00;99.90;;;;;;5000050;28;20023;-80
2022/11/07 12:05:01;;;;;;;9.18;2.67;;;15.30;99.90;;;;;;5004476;28;20409;-80
2022/11/07 12:07:44;;;;;;;7.38;2.20;;;15.70;99.90;;;;;;5000161;28;20385;-80
2022/11/07 12:10:42;;;;;;;6.68;2.22;;;15.70;1.00;;;;;;4996893;28;20072;-80
2022/11/07 12:13:26;;;;;;;8.05;2.38;;;15.20;99.90;;;;;;5004554;28;20038;-80
2022/11/07 12:16:25;;;;;;;7.97;2.25;;;15.10;99.90;;;;;;5004230;28;20037;-80
2022/11/07 12:19:08;;;;;;;9.10;2.78;;;15.50;99.90;;;;;;5008894;28;20113;-80
2022/11/07 12:21:47;;;;;;;8.23;2.40;;;15.90;99.90;;;;;;5013693;28;20019;-80
2022/11/07 12:24:57;;;;;;;7.20;2.17;;;15.80;5.10;;;;;;5001526;28;20030;-80
2022/11/07 12:27:36;;;;;;;8.40;2.40;;;15.80;15.30;;;;;;4942988;29;20028;-79
2022/11/07 12:30:07;;;;;;;11.65;2.60;;;15.70;11.80;;;;;;4943785;29;20027;-80
2022/11/07 12:33:02;;;;;;;10.80;2.65;;;15.50;1.00;;;;;;4978827;28;20061;-80
2022/11/07 12:35:42;;;;;;;7.30;2.75;;;15.30;1.00;;;;;;5011904;28;20536;-80
2022/11/07 12:38:10;;;;;;;9.38;2.90;;;15.20;1.00;;;;;;5011105;28;20037;-80
2022/11/07 12:40:48;;;;;;;10.68;2.92;;;15.00;1.00;;;;;;5009486;28;20124;-80
2022/11/07 12:43:40;;;;;;;9.50;2.70;;;15.00;21.10;;;;;;5014509;28;20022;-80
2022/11/07 12:46:31;;;;;;;11.02;3.33;;;14.90;1.00;;;;;;5013684;28;20030;-80
2022/11/07 12:49:03;;;;;;;;;;;14.80;60.00;;;;;;5011064;28;20026;-80
2022/11/07 12:52:17;;;;;;;12.70;3.13;;;14.70;48.00;;;;;;5001629;28;19909;-80
2022/11/07 12:54:57;;;;;;;6.95;2.97;;;14.80;71.40;;;;;;4957044;28;20055;-79
2022/11/07 12:57:27;;;;;;;10.73;3.30;;;14.90;28.40;;;;;;5008108;28;20037;-80
2022/11/07 13:00:08;;;;;;;11.07;4.03;;;14.90;42.10;;;;;;5013057;28;20118;-80
2022/11/07 13:02:54;;;;;;;13.52;3.47;;;14.80;1.00;;;;;;5010520;28;20025;-81
2022/11/07 13:05:23;;;;;;;12.55;3.08;;;14.80;51.40;;;;;;5013776;28;20025;-81